createdAt,value
2022-08-11T00:00:36.956Z,10
2022-08-11T00:01:38.055Z,10
2022-08-11T00:02:42.594Z,10
2022-08-11T00:03:44.199Z,9
2022-08-11T00:04:46.298Z,9
2022-08-11T00:05:47.562Z,9
2022-08-11T00:06:48.820Z,9
2022-08-11T00:07:50.097Z,9
2022-08-11T00:08:51.935Z,8
2022-08-11T00:09:53.783Z,9
2022-08-11T00:10:55.313Z,10
2022-08-11T00:11:58.521Z,10
2022-08-11T00:13:01.397Z,11
2022-08-11T00:14:02.420Z,10
2022-08-11T00:15:03.939Z,10
2022-08-11T00:16:04.941Z,11
2022-08-11T00:17:06.221Z,11
2022-08-11T00:18:07.501Z,11
2022-08-11T00:19:11.239Z,10
2022-08-11T00:20:16.431Z,10
2022-08-11T00:21:18.804Z,9
2022-08-11T00:23:07.063Z,9
2022-08-11T00:24:08.623Z,9
2022-08-11T00:25:10.689Z,9
2022-08-11T00:26:12.193Z,9
2022-08-11T00:27:14.122Z,10
2022-08-11T00:28:15.382Z,10
2022-08-11T00:29:16.661Z,9
2022-08-11T00:30:17.938Z,9
2022-08-11T00:31:20.304Z,9
2022-08-11T00:32:21.615Z,9
2022-08-11T00:33:41.019Z,9
2022-08-11T00:34:46.665Z,10
2022-08-11T00:35:50.254Z,10
2022-08-11T00:36:58.643Z,10
2022-08-11T00:37:59.665Z,10
2022-08-11T00:39:00.664Z,9
2022-08-11T00:40:02.020Z,9
2022-08-11T00:41:03.685Z,9
2022-08-11T00:42:05.479Z,10
2022-08-11T00:43:06.510Z,10
2022-08-11T00:44:27.569Z,11
2022-08-11T00:45:31.346Z,11
2022-08-11T00:46:32.336Z,10
2022-08-11T00:47:33.888Z,10
2022-08-11T00:48:34.911Z,11
2022-08-11T00:49:36.981Z,10
2022-08-11T00:50:38.305Z,11
2022-08-11T00:52:02.132Z,10
2022-08-11T00:53:07.670Z,10
2022-08-11T00:54:08.955Z,11
2022-08-11T00:55:10.244Z,11
2022-08-11T00:56:11.760Z,11
2022-08-11T00:57:36.559Z,10
2022-08-11T00:58:40.084Z,9
2022-08-11T00:59:51.607Z,9
2022-08-11T01:00:52.926Z,10
2022-08-11T01:01:54.504Z,10
2022-08-11T01:02:55.505Z,10
2022-08-11T01:03:58.258Z,10
2022-08-11T01:04:59.765Z,11
2022-08-11T01:06:01.268Z,12
2022-08-11T01:07:09.049Z,13
2022-08-11T01:08:10.346Z,14
2022-08-11T01:09:18.044Z,13
2022-08-11T01:10:24.149Z,13
2022-08-11T01:11:26.938Z,14
2022-08-11T01:12:29.063Z,14
2022-08-11T01:13:31.103Z,14
2022-08-11T01:14:34.280Z,13
2022-08-11T01:15:36.358Z,12
2022-08-11T01:16:41.026Z,12
2022-08-11T01:17:42.339Z,12
2022-08-11T01:18:44.141Z,12
2022-08-11T01:20:39.686Z,11
2022-08-11T01:21:50.964Z,10
2022-08-11T01:22:55.374Z,9
2022-08-11T01:23:56.654Z,9
2022-08-11T01:24:57.946Z,9
2022-08-11T01:25:58.927Z,9
2022-08-11T01:26:59.931Z,10
2022-08-11T01:28:00.941Z,11
2022-08-11T01:29:02.583Z,11
2022-08-11T01:30:04.123Z,11
2022-08-11T01:31:05.629Z,11
2022-08-11T01:32:07.985Z,11
2022-08-11T01:33:09.545Z,11
2022-08-11T01:34:11.371Z,12
2022-08-11T01:35:12.674Z,12
2022-08-11T01:36:15.033Z,12
2022-08-11T01:37:16.359Z,11
2022-08-11T01:38:17.638Z,11
2022-08-11T01:39:18.792Z,11
2022-08-11T01:40:20.499Z,10
2022-08-11T01:41:21.913Z,11
2022-08-11T01:42:22.909Z,10
2022-08-11T01:43:24.976Z,10
2022-08-11T01:44:26.237Z,10
2022-08-11T01:45:28.223Z,9
2022-08-11T01:46:29.739Z,10
2022-08-11T01:47:31.317Z,10
2022-08-11T01:48:32.585Z,10
2022-08-11T01:50:05.992Z,10
2022-08-11T01:51:16.779Z,9
2022-08-11T01:52:18.475Z,9
2022-08-11T01:53:35.825Z,9
2022-08-11T01:54:40.928Z,9
2022-08-11T01:55:42.989Z,10
2022-08-11T01:56:44.837Z,10
2022-08-11T01:57:46.672Z,11
2022-08-11T01:58:48.542Z,10
2022-08-11T01:59:50.124Z,10
2022-08-11T02:00:53.094Z,10
2022-08-11T02:01:54.869Z,10
2022-08-11T02:02:56.422Z,11
2022-08-11T02:03:57.973Z,11
2022-08-11T02:04:58.960Z,10
2022-08-11T02:06:00.253Z,10
2022-08-11T02:07:01.921Z,11
2022-08-11T02:08:03.483Z,10
2022-08-11T02:09:12.065Z,11
2022-08-11T02:10:20.013Z,11
2022-08-11T02:11:41.106Z,10
2022-08-11T02:12:49.338Z,10
2022-08-11T02:13:53.813Z,10
2022-08-11T02:15:04.849Z,11
2022-08-11T02:16:07.389Z,10
2022-08-11T02:17:09.179Z,11
2022-08-11T02:18:11.025Z,10
2022-08-11T02:19:12.858Z,10
2022-08-11T02:20:14.968Z,10
2022-08-11T02:21:17.019Z,10
2022-08-11T02:22:19.638Z,10
2022-08-11T02:23:23.924Z,10
2022-08-11T02:25:08.947Z,9
2022-08-11T02:26:10.494Z,9
2022-08-11T02:27:12.537Z,10
2022-08-11T02:28:13.807Z,10
2022-08-11T02:29:15.103Z,11
2022-08-11T02:30:16.373Z,11
2022-08-11T02:32:04.902Z,11
2022-08-11T02:33:32.389Z,11
2022-08-11T02:34:39.004Z,12
2022-08-11T02:35:42.699Z,12
2022-08-11T02:36:44.351Z,11
2022-08-11T02:37:45.625Z,11
2022-08-11T02:38:47.187Z,10
2022-08-11T02:39:48.522Z,9
2022-08-11T02:40:52.750Z,9
2022-08-11T02:41:54.016Z,10
2022-08-11T02:42:55.569Z,11
2022-08-11T02:43:56.859Z,11
2022-08-11T02:44:58.164Z,12
2022-08-11T02:45:59.802Z,11
2022-08-11T02:47:01.309Z,11
2022-08-11T02:48:02.963Z,11
2022-08-11T02:49:04.238Z,10
2022-08-11T02:50:08.156Z,10
2022-08-11T02:51:09.153Z,10
2022-08-11T02:52:10.380Z,10
2022-08-11T02:53:11.367Z,10
2022-08-11T02:54:12.359Z,11
2022-08-11T02:55:44.352Z,11
2022-08-11T02:56:59.788Z,11
2022-08-11T02:58:01.403Z,11
2022-08-11T02:59:02.963Z,11
2022-08-11T03:00:03.951Z,11
2022-08-11T03:01:04.957Z,11
2022-08-11T03:02:06.019Z,11
2022-08-11T03:03:08.134Z,11
2022-08-11T03:04:09.426Z,12
2022-08-11T03:05:11.726Z,12
2022-08-11T03:06:12.960Z,12
2022-08-11T03:07:28.380Z,12
2022-08-11T03:08:31.063Z,12
2022-08-11T03:09:32.117Z,12
2022-08-11T03:10:33.387Z,11
2022-08-11T03:11:37.628Z,12
2022-08-11T03:12:38.782Z,11
2022-08-11T03:13:40.608Z,11
2022-08-11T03:14:41.850Z,11
2022-08-11T03:15:44.578Z,10
2022-08-11T03:16:46.020Z,10
2022-08-11T03:18:54.306Z,11
2022-08-11T03:19:55.339Z,11
2022-08-11T03:20:56.571Z,12
2022-08-11T03:22:02.097Z,11
2022-08-11T03:23:19.261Z,12
2022-08-11T03:24:21.641Z,11
2022-08-11T03:25:22.903Z,11
2022-08-11T03:26:24.428Z,11
2022-08-11T03:27:25.678Z,10
2022-08-11T03:28:27.183Z,10
2022-08-11T03:29:28.188Z,10
2022-08-11T03:30:29.831Z,10
2022-08-11T03:31:31.399Z,10
2022-08-11T03:32:32.731Z,10
2022-08-11T03:33:34.380Z,10
2022-08-11T03:34:35.640Z,11
2022-08-11T03:35:36.909Z,11
2022-08-11T03:36:55.725Z,11
2022-08-11T03:38:21.018Z,12
2022-08-11T03:39:31.823Z,12
2022-08-11T03:40:32.995Z,12
2022-08-11T03:41:49.499Z,12
2022-08-11T03:43:11.834Z,12
2022-08-11T03:44:14.787Z,12
2022-08-11T03:45:16.609Z,12
2022-08-11T03:46:20.882Z,12
2022-08-11T03:47:24.058Z,12
2022-08-11T03:48:25.037Z,12
2022-08-11T03:49:26.327Z,12
2022-08-11T03:50:27.599Z,12
2022-08-11T03:51:30.589Z,12
2022-08-11T03:52:53.499Z,12
2022-08-11T03:53:54.725Z,12
2022-08-11T03:54:56.517Z,12
2022-08-11T03:55:57.825Z,12
2022-08-11T03:57:00.464Z,12
2022-08-11T03:58:02.619Z,12
2022-08-11T03:59:04.407Z,11
2022-08-11T04:00:06.013Z,11
2022-08-11T04:01:07.560Z,11
2022-08-11T04:02:09.360Z,11
2022-08-11T04:03:10.364Z,10
2022-08-11T04:04:11.423Z,10
2022-08-11T04:05:12.436Z,10
2022-08-11T04:06:13.986Z,10
2022-08-11T04:07:17.371Z,10
2022-08-11T04:08:18.871Z,11
2022-08-11T04:09:20.120Z,11
2022-08-11T04:10:21.968Z,12
2022-08-11T04:11:22.967Z,12
2022-08-11T04:12:36.163Z,13
2022-08-11T04:13:38.211Z,13
2022-08-11T04:14:39.212Z,13
2022-08-11T04:15:40.293Z,13
2022-08-11T04:16:41.286Z,12
2022-08-11T04:17:42.565Z,12
2022-08-11T04:18:44.636Z,11
2022-08-11T04:19:46.151Z,11
2022-08-11T04:20:47.422Z,11
2022-08-11T04:21:48.699Z,11
2022-08-11T04:22:50.285Z,12
2022-08-11T04:24:13.742Z,12
2022-08-11T04:25:51.032Z,12
2022-08-11T04:27:01.783Z,12
2022-08-11T04:28:28.737Z,11
2022-08-11T04:30:02.241Z,12
2022-08-11T04:31:13.303Z,12
2022-08-11T04:32:54.061Z,12
2022-08-11T04:33:56.526Z,12
2022-08-11T04:34:58.273Z,12
2022-08-11T04:36:00.140Z,12
2022-08-11T04:37:01.461Z,12
2022-08-11T04:38:03.941Z,12
2022-08-11T04:39:04.935Z,11
2022-08-11T04:40:06.166Z,11
2022-08-11T04:41:07.544Z,11
2022-08-11T04:42:08.868Z,11
2022-08-11T04:43:10.529Z,12
2022-08-11T04:44:11.811Z,12
2022-08-11T04:45:13.499Z,13
2022-08-11T04:46:15.605Z,12
2022-08-11T04:47:17.710Z,12
2022-08-11T04:48:19.275Z,12
2022-08-11T04:49:24.292Z,12
2022-08-11T04:50:35.439Z,12
2022-08-11T04:51:36.447Z,12
2022-08-11T04:52:38.483Z,11
2022-08-11T04:53:41.704Z,11
2022-08-11T04:54:42.930Z,11
2022-08-11T04:55:44.237Z,12
2022-08-11T04:56:45.660Z,13
2022-08-11T04:57:46.893Z,12
2022-08-11T04:58:48.747Z,12
2022-08-11T04:59:50.351Z,12
2022-08-11T05:00:51.905Z,12
2022-08-11T05:01:58.837Z,12
2022-08-11T05:03:00.573Z,13
2022-08-11T05:04:01.845Z,13
2022-08-11T05:05:03.103Z,13
2022-08-11T05:06:05.010Z,13
2022-08-11T05:07:06.796Z,13
2022-08-11T05:08:07.811Z,12
2022-08-11T05:09:08.795Z,12
2022-08-11T05:10:10.068Z,12
2022-08-11T05:11:11.577Z,12
2022-08-11T05:12:13.116Z,12
2022-08-11T05:13:14.973Z,13
2022-08-11T05:14:16.518Z,13
2022-08-11T05:15:23.579Z,13
2022-08-11T05:16:25.363Z,13
2022-08-11T05:17:26.883Z,12
2022-08-11T05:18:27.932Z,12
2022-08-11T05:19:29.722Z,11
2022-08-11T05:20:30.959Z,11
2022-08-11T05:21:33.893Z,12
2022-08-11T05:22:46.519Z,12
2022-08-11T05:23:48.102Z,13
2022-08-11T05:24:49.103Z,13
2022-08-11T05:26:09.183Z,12
2022-08-11T05:27:51.311Z,12
2022-08-11T05:28:53.503Z,12
2022-08-11T05:29:54.509Z,12
2022-08-11T05:30:55.792Z,12
2022-08-11T05:31:57.067Z,12
2022-08-11T05:33:01.871Z,13
2022-08-11T05:34:03.839Z,12
2022-08-11T05:35:05.381Z,11
2022-08-11T05:36:07.176Z,11
2022-08-11T05:37:25.469Z,10
2022-08-11T05:38:28.997Z,10
2022-08-11T05:39:33.617Z,11
2022-08-11T05:40:38.487Z,10
2022-08-11T05:41:40.309Z,10
2022-08-11T05:42:42.249Z,9
2022-08-11T05:44:19.360Z,10
2022-08-11T05:45:23.801Z,10
2022-08-11T05:46:24.839Z,9
2022-08-11T05:47:26.071Z,10
2022-08-11T05:48:27.341Z,10
2022-08-11T05:49:28.882Z,10
2022-08-11T05:50:34.090Z,10
2022-08-11T05:51:44.496Z,10
2022-08-11T05:53:17.170Z,10
2022-08-11T05:54:28.017Z,11
2022-08-11T05:55:30.918Z,11
2022-08-11T05:56:32.502Z,10
2022-08-11T05:57:38.668Z,10
2022-08-11T05:58:53.828Z,10
2022-08-11T05:59:55.929Z,10
2022-08-11T06:00:57.160Z,10
2022-08-11T06:01:58.797Z,10
2022-08-11T06:03:00.807Z,10
2022-08-11T06:04:02.399Z,9
2022-08-11T06:05:04.012Z,9
2022-08-11T06:06:05.805Z,8
2022-08-11T06:07:07.889Z,9
2022-08-11T06:08:09.163Z,9
2022-08-11T06:09:10.953Z,10
2022-08-11T06:10:12.784Z,11
2022-08-11T06:11:14.344Z,10
2022-08-11T06:12:16.725Z,10
2022-08-11T06:13:18.520Z,11
2022-08-11T06:14:20.023Z,10
2022-08-11T06:15:21.290Z,11
2022-08-11T06:16:23.176Z,12
2022-08-11T06:17:24.531Z,11
2022-08-11T06:18:25.757Z,11
2022-08-11T06:19:27.349Z,10
2022-08-11T06:20:29.419Z,10
2022-08-11T06:21:31.521Z,10
2022-08-11T06:22:33.195Z,10
2022-08-11T06:23:35.927Z,10
2022-08-11T06:24:38.538Z,11
2022-08-11T06:25:40.605Z,13
2022-08-11T06:27:01.452Z,14
2022-08-11T06:28:20.052Z,14
2022-08-11T06:29:23.721Z,13
2022-08-11T06:30:59.042Z,12
2022-08-11T06:32:00.625Z,10
2022-08-11T06:33:02.129Z,9
2022-08-11T06:34:04.125Z,9
2022-08-11T06:35:05.541Z,8
2022-08-11T06:36:07.384Z,8
2022-08-11T06:37:08.388Z,9
2022-08-11T06:38:10.090Z,9
2022-08-11T06:39:11.437Z,9
2022-08-11T06:40:13.307Z,10
2022-08-11T06:41:14.590Z,10
2022-08-11T06:42:15.851Z,9
2022-08-11T06:43:17.425Z,9
2022-08-11T06:44:18.959Z,8
2022-08-11T06:45:21.067Z,8
2022-08-11T06:46:25.240Z,9
2022-08-11T06:47:29.840Z,11
2022-08-11T06:48:30.829Z,12
2022-08-11T06:49:32.142Z,13
2022-08-11T06:50:33.137Z,14
2022-08-11T06:51:34.925Z,13
2022-08-11T06:52:43.070Z,14
2022-08-11T06:53:56.444Z,15
2022-08-11T06:55:06.835Z,15
2022-08-11T06:57:28.149Z,17
2022-08-11T06:58:32.643Z,17
2022-08-11T06:59:34.157Z,15
2022-08-11T07:00:35.404Z,15
2022-08-11T07:01:36.692Z,12
2022-08-11T07:02:38.393Z,12
2022-08-11T07:03:39.868Z,12
2022-08-11T07:04:41.662Z,14
2022-08-11T07:05:42.919Z,15
2022-08-11T07:06:50.827Z,15
2022-08-11T07:07:52.911Z,13
2022-08-11T07:08:54.416Z,12
2022-08-11T07:09:55.438Z,10
2022-08-11T07:10:58.328Z,10
2022-08-11T07:11:59.598Z,10
2022-08-11T07:13:01.105Z,10
2022-08-11T07:14:04.001Z,13
2022-08-11T07:15:04.991Z,17
2022-08-11T07:16:09.216Z,20
2022-08-11T07:17:15.017Z,19
2022-08-11T07:18:16.014Z,16
2022-08-11T07:19:17.794Z,12
2022-08-11T07:20:19.306Z,11
2022-08-11T07:21:42.822Z,12
2022-08-11T07:23:05.129Z,12
2022-08-11T07:24:06.416Z,12
2022-08-11T07:25:07.694Z,11
2022-08-11T07:26:09.543Z,10
2022-08-11T07:27:10.868Z,10
2022-08-11T07:28:12.656Z,10
2022-08-11T07:29:14.157Z,10
2022-08-11T07:30:15.152Z,10
2022-08-11T07:31:17.267Z,10
2022-08-11T07:32:19.114Z,10
2022-08-11T07:34:06.265Z,10
2022-08-11T07:35:19.396Z,10
2022-08-11T07:36:21.227Z,9
2022-08-11T07:37:30.213Z,10
2022-08-11T07:38:31.771Z,10
2022-08-11T07:39:35.977Z,11
2022-08-11T07:40:37.875Z,12
2022-08-11T07:41:39.110Z,12
2022-08-11T07:42:40.419Z,12
2022-08-11T07:43:42.236Z,12
2022-08-11T07:44:44.019Z,13
2022-08-11T07:45:45.286Z,13
2022-08-11T07:46:47.091Z,12
2022-08-11T07:47:49.741Z,10
2022-08-11T07:48:51.020Z,10
2022-08-11T07:49:52.817Z,9
2022-08-11T07:50:56.179Z,9
2022-08-11T07:51:57.751Z,8
2022-08-11T07:53:00.010Z,8
2022-08-11T07:54:03.424Z,8
2022-08-11T07:55:20.435Z,9
2022-08-11T07:57:07.624Z,8
2022-08-11T07:59:25.469Z,8
2022-08-11T08:01:17.711Z,8
2022-08-11T08:02:23.992Z,8
2022-08-11T08:03:31.822Z,8
2022-08-11T08:04:33.084Z,8
2022-08-11T08:05:34.372Z,7
2022-08-11T08:06:36.617Z,7
2022-08-11T08:07:38.020Z,7
2022-08-11T08:08:41.560Z,7
2022-08-11T08:09:42.843Z,7
2022-08-11T08:10:43.848Z,7
2022-08-11T08:11:45.431Z,6
2022-08-11T08:12:47.122Z,6
2022-08-11T08:13:48.653Z,6
2022-08-11T08:14:51.953Z,5
2022-08-11T08:15:53.224Z,6
2022-08-11T08:16:55.296Z,6
2022-08-11T08:18:08.864Z,6
2022-08-11T08:19:30.455Z,7
2022-08-11T08:20:31.690Z,6
2022-08-11T08:21:32.672Z,6
2022-08-11T08:22:37.602Z,6
2022-08-11T08:23:53.052Z,6
2022-08-11T08:24:57.641Z,6
2022-08-11T08:25:59.643Z,6
2022-08-11T08:27:01.743Z,7
2022-08-11T08:28:03.260Z,8
2022-08-11T08:29:05.600Z,8
2022-08-11T08:30:07.214Z,8
2022-08-11T08:31:08.532Z,7
2022-08-11T08:32:09.838Z,8
2022-08-11T08:33:10.834Z,9
2022-08-11T08:34:12.107Z,10
2022-08-11T08:35:13.399Z,10
2022-08-11T08:36:14.977Z,10
2022-08-11T08:37:44.872Z,10
2022-08-11T08:38:49.698Z,9
2022-08-11T08:39:51.279Z,9
2022-08-11T08:40:55.888Z,9
2022-08-11T08:41:58.020Z,9
2022-08-11T08:42:59.018Z,10
2022-08-11T08:44:20.945Z,13
2022-08-11T08:45:50.430Z,16
2022-08-11T08:46:53.062Z,17
2022-08-11T08:47:54.344Z,17
2022-08-11T08:48:55.334Z,14
2022-08-11T08:49:56.340Z,11
2022-08-11T08:50:57.642Z,8
2022-08-11T08:52:01.788Z,7
2022-08-11T08:53:51.813Z,6
2022-08-11T08:55:00.126Z,7
2022-08-11T08:56:01.941Z,7
2022-08-11T08:57:02.954Z,7
2022-08-11T08:58:04.192Z,6
2022-08-11T08:59:05.787Z,6
2022-08-11T09:00:06.806Z,6
2022-08-11T09:01:24.529Z,6
2022-08-11T09:02:33.768Z,6
2022-08-11T09:03:42.032Z,5
2022-08-11T09:05:21.521Z,7
2022-08-11T09:06:23.314Z,7
2022-08-11T09:07:24.604Z,8
2022-08-11T09:08:26.139Z,10
2022-08-11T09:09:27.745Z,9
2022-08-11T09:10:28.756Z,9
2022-08-11T09:11:30.407Z,9
2022-08-11T09:12:36.151Z,8
2022-08-11T09:13:40.655Z,7
2022-08-11T09:14:41.939Z,6
2022-08-11T09:15:42.933Z,6
2022-08-11T09:16:44.486Z,6
2022-08-11T09:17:45.498Z,7
2022-08-11T09:18:47.239Z,7
2022-08-11T09:19:59.415Z,7
2022-08-11T09:21:04.908Z,7
2022-08-11T09:22:06.459Z,6
2022-08-11T09:25:27.562Z,9
2022-08-11T09:26:30.328Z,12
2022-08-11T09:27:32.798Z,15
2022-08-11T09:28:34.896Z,18
2022-08-11T09:29:37.565Z,16
2022-08-11T09:30:41.469Z,14
2022-08-11T09:31:43.029Z,11
2022-08-11T09:32:44.068Z,10
2022-08-11T09:33:45.122Z,8
2022-08-11T09:34:46.408Z,7
2022-08-11T09:35:47.966Z,7
2022-08-11T09:36:49.507Z,6
2022-08-11T09:37:55.071Z,6
2022-08-11T09:39:00.362Z,7
2022-08-11T09:40:03.754Z,7
2022-08-11T09:41:05.824Z,7
2022-08-11T09:42:06.812Z,7
2022-08-11T09:43:29.718Z,7
2022-08-11T09:44:30.726Z,7
2022-08-11T09:45:40.340Z,6
2022-08-11T09:46:41.634Z,6
2022-08-11T09:47:42.633Z,7
2022-08-11T09:48:46.864Z,7
2022-08-11T09:49:48.476Z,8
2022-08-11T09:50:50.038Z,7
2022-08-11T09:51:59.786Z,6
2022-08-11T09:53:35.427Z,6
2022-08-11T09:55:04.578Z,8
2022-08-11T09:56:06.568Z,9
2022-08-11T09:57:07.591Z,9
2022-08-11T09:58:09.438Z,10
2022-08-11T09:59:42.287Z,8
2022-08-11T10:00:45.519Z,9
2022-08-11T10:01:48.085Z,10
2022-08-11T10:02:49.179Z,10
2022-08-11T10:03:50.465Z,10
2022-08-11T10:04:51.742Z,10
2022-08-11T10:05:52.754Z,9
2022-08-11T10:06:55.267Z,8
2022-08-11T10:07:56.767Z,8
2022-08-11T10:08:58.004Z,7
2022-08-11T10:09:59.851Z,7
2022-08-11T10:11:02.362Z,7
2022-08-11T10:12:04.182Z,7
2022-08-11T10:13:05.173Z,7
2022-08-11T10:15:36.061Z,7
2022-08-11T10:16:37.435Z,7
2022-08-11T10:17:39.465Z,7
2022-08-11T10:18:41.620Z,7
2022-08-11T10:19:42.897Z,7
2022-08-11T10:21:02.195Z,8
2022-08-11T10:22:03.730Z,8
2022-08-11T10:23:05.816Z,7
2022-08-11T10:24:07.091Z,8
2022-08-11T10:25:08.081Z,7
2022-08-11T10:26:09.641Z,8
2022-08-11T10:27:10.929Z,9
2022-08-11T10:28:17.203Z,8
2022-08-11T10:30:16.032Z,9
2022-08-11T10:31:18.214Z,9
2022-08-11T10:32:19.660Z,9
2022-08-11T10:33:36.543Z,9
2022-08-11T10:35:00.693Z,7
2022-08-11T10:36:02.208Z,7
2022-08-11T10:37:16.352Z,7
2022-08-11T10:38:17.532Z,8
2022-08-11T10:39:19.979Z,8
2022-08-11T10:40:21.586Z,8
2022-08-11T10:41:22.580Z,7
2022-08-11T10:42:35.315Z,8
2022-08-11T10:44:02.278Z,10
2022-08-11T10:45:05.341Z,10
2022-08-11T10:46:07.127Z,12
2022-08-11T10:47:08.917Z,11
2022-08-11T10:48:14.889Z,11
2022-08-11T10:49:17.003Z,12
2022-08-11T10:50:18.005Z,11
2022-08-11T10:51:42.826Z,14
2022-08-11T10:52:59.930Z,14
2022-08-11T10:54:01.197Z,14
2022-08-11T10:55:02.515Z,14
2022-08-11T10:57:06.956Z,11
2022-08-11T10:58:08.180Z,10
2022-08-11T10:59:09.519Z,9
2022-08-11T11:00:10.827Z,9
2022-08-11T11:01:12.111Z,9
2022-08-11T11:02:14.265Z,9
2022-08-11T11:03:23.475Z,10
2022-08-11T11:04:24.961Z,9
2022-08-11T11:05:34.558Z,9
2022-08-11T11:06:36.183Z,9
2022-08-11T11:07:37.563Z,9
2022-08-11T11:08:45.945Z,10
2022-08-11T11:09:53.227Z,9
2022-08-11T11:10:54.527Z,9
2022-08-11T11:11:56.336Z,9
2022-08-11T11:12:57.805Z,8
2022-08-11T11:13:59.114Z,9
2022-08-11T11:15:08.406Z,9
2022-08-11T11:16:19.218Z,10
2022-08-11T11:17:20.445Z,10
2022-08-11T11:18:21.435Z,10
2022-08-11T11:19:22.714Z,9
2022-08-11T11:20:34.957Z,9
2022-08-11T11:21:49.017Z,9
2022-08-11T11:22:50.841Z,10
2022-08-11T11:23:52.918Z,10
2022-08-11T11:24:53.903Z,11
2022-08-11T11:25:57.251Z,11
2022-08-11T11:27:00.416Z,10
2022-08-11T11:28:01.748Z,10
2022-08-11T11:29:02.737Z,10
2022-08-11T11:30:03.972Z,10
2022-08-11T11:31:04.970Z,10
2022-08-11T11:32:05.975Z,11
2022-08-11T11:33:08.868Z,11
2022-08-11T11:34:11.983Z,12
2022-08-11T11:35:14.003Z,12
2022-08-11T11:36:16.222Z,13
2022-08-11T11:37:17.806Z,15
2022-08-11T11:38:19.328Z,15
2022-08-11T11:39:20.920Z,15
2022-08-11T11:40:22.448Z,15
2022-08-11T11:41:33.677Z,15
2022-08-11T11:42:35.022Z,14
2022-08-11T11:43:36.012Z,14
2022-08-11T11:44:37.311Z,14
2022-08-11T11:45:42.336Z,14
2022-08-11T11:46:43.341Z,15
2022-08-11T11:47:44.920Z,15
2022-08-11T11:48:46.185Z,15
2022-08-11T11:49:48.509Z,15
2022-08-11T11:50:49.739Z,15
2022-08-11T11:51:58.836Z,15
2022-08-11T11:53:00.401Z,14
2022-08-11T11:54:01.966Z,14
2022-08-11T11:55:03.221Z,14
2022-08-11T11:56:04.504Z,15
2022-08-11T11:57:05.523Z,16
2022-08-11T11:58:06.809Z,17
2022-08-11T11:59:18.945Z,17
2022-08-11T12:00:20.510Z,17
2022-08-11T12:01:21.532Z,18
2022-08-11T12:02:22.796Z,17
2022-08-11T12:03:24.122Z,17
2022-08-11T12:04:25.368Z,16
2022-08-11T12:05:26.365Z,15
2022-08-11T12:06:27.904Z,16
2022-08-11T12:07:29.836Z,17
2022-08-11T12:08:31.632Z,19
2022-08-11T12:09:32.633Z,19
2022-08-11T12:10:33.862Z,20
2022-08-11T12:11:34.869Z,20
2022-08-11T12:12:36.875Z,19
2022-08-11T12:13:38.264Z,19
2022-08-11T12:14:39.827Z,19
2022-08-11T12:16:03.731Z,19
2022-08-11T12:17:38.158Z,20
2022-08-11T12:18:42.453Z,21
2022-08-11T12:19:48.325Z,21
2022-08-11T12:20:50.765Z,21
2022-08-11T12:21:52.880Z,21
2022-08-11T12:23:02.576Z,20
2022-08-11T12:24:04.647Z,20
2022-08-11T12:25:06.092Z,20
2022-08-11T12:26:26.193Z,20
2022-08-11T12:27:29.389Z,21
2022-08-11T12:28:31.845Z,21
2022-08-11T12:29:32.868Z,20
2022-08-11T12:30:35.779Z,20
2022-08-11T12:31:37.284Z,19
2022-08-11T12:32:38.998Z,18
2022-08-11T12:33:42.179Z,17
2022-08-11T12:34:43.881Z,16
2022-08-11T12:36:00.442Z,14
2022-08-11T12:37:03.224Z,13
2022-08-11T12:38:10.026Z,13
2022-08-11T12:40:13.259Z,12
2022-08-11T12:42:18.127Z,12
2022-08-11T12:43:24.268Z,11
2022-08-11T12:44:41.118Z,11
2022-08-11T12:45:42.764Z,10
2022-08-11T12:46:44.287Z,10
2022-08-11T12:47:45.840Z,10
2022-08-11T12:50:05.705Z,10
2022-08-11T12:51:24.982Z,10
2022-08-11T12:52:26.250Z,11
2022-08-11T12:53:27.770Z,11
2022-08-11T12:54:32.034Z,11
2022-08-11T12:55:33.301Z,11
2022-08-11T12:56:36.005Z,10
2022-08-11T12:57:39.052Z,10
2022-08-11T12:58:41.159Z,10
2022-08-11T12:59:42.444Z,9
2022-08-11T13:00:44.365Z,9
2022-08-11T13:01:46.203Z,8
2022-08-11T13:02:48.128Z,9
2022-08-11T13:03:52.029Z,8
2022-08-11T13:04:58.483Z,8
2022-08-11T13:06:05.226Z,8
2022-08-11T13:07:06.822Z,8
2022-08-11T13:08:08.093Z,8
2022-08-11T13:09:09.688Z,9
2022-08-11T13:10:11.279Z,9
2022-08-11T13:11:19.185Z,9
2022-08-11T13:12:20.799Z,9
2022-08-11T13:13:53.054Z,9
2022-08-11T13:14:59.294Z,9
2022-08-11T13:16:02.568Z,9
2022-08-11T13:17:04.120Z,9
2022-08-11T13:18:05.664Z,9
2022-08-11T13:19:06.933Z,9
2022-08-11T13:20:08.472Z,9
2022-08-11T13:21:09.463Z,9
2022-08-11T13:22:10.456Z,9
2022-08-11T13:23:11.772Z,9
2022-08-11T13:24:13.085Z,9
2022-08-11T13:25:14.991Z,8
2022-08-11T13:26:16.387Z,8
2022-08-11T13:27:43.709Z,9
2022-08-11T13:28:45.765Z,9
2022-08-11T13:29:47.035Z,9
2022-08-11T13:30:48.080Z,8
2022-08-11T13:31:49.073Z,8
2022-08-11T13:32:50.095Z,7
2022-08-11T13:33:51.429Z,7
2022-08-11T13:34:53.424Z,7
2022-08-11T13:35:54.409Z,7
2022-08-11T13:36:55.697Z,7
2022-08-11T13:38:27.482Z,7
2022-08-11T13:39:30.382Z,6
2022-08-11T13:40:52.828Z,7
2022-08-11T13:41:57.300Z,7
2022-08-11T13:42:58.323Z,7
2022-08-11T13:43:59.601Z,8
2022-08-11T13:45:04.351Z,7
2022-08-11T13:46:05.356Z,7
2022-08-11T13:47:07.423Z,6
2022-08-11T13:48:08.709Z,6
2022-08-11T13:49:10.257Z,5
2022-08-11T13:50:11.473Z,6
2022-08-11T13:51:15.705Z,6
2022-08-11T13:52:16.722Z,6
2022-08-11T13:53:18.274Z,7
2022-08-11T13:54:19.824Z,7
2022-08-11T13:55:33.267Z,8
2022-08-11T13:56:53.861Z,9
2022-08-11T13:58:06.875Z,9
2022-08-11T13:59:50.050Z,9
2022-08-11T14:01:11.227Z,9
2022-08-11T14:04:29.462Z,8
2022-08-11T14:05:33.922Z,9
2022-08-11T14:06:36.291Z,10
2022-08-11T14:07:37.735Z,9
2022-08-11T14:08:45.337Z,10
2022-08-11T14:09:55.480Z,10
2022-08-11T14:10:58.352Z,10
2022-08-11T14:12:19.881Z,10
2022-08-11T14:13:25.763Z,9
2022-08-11T14:14:27.269Z,8
2022-08-11T14:15:28.783Z,8
2022-08-11T14:16:30.326Z,7
2022-08-11T14:17:36.099Z,7
2022-08-11T14:18:51.734Z,6
2022-08-11T14:19:53.563Z,6
2022-08-11T14:20:55.112Z,6
2022-08-11T14:21:56.106Z,6
2022-08-11T14:22:57.504Z,6
2022-08-11T14:23:58.776Z,6
2022-08-11T14:25:02.889Z,6
2022-08-11T14:26:04.461Z,6
2022-08-11T14:27:05.454Z,5
2022-08-11T14:28:43.946Z,6
2022-08-11T14:29:48.885Z,6
2022-08-11T14:30:50.996Z,6
2022-08-11T14:32:01.895Z,6
2022-08-11T14:33:13.193Z,5
2022-08-11T14:34:22.279Z,5
2022-08-11T14:35:23.539Z,5
2022-08-11T14:36:24.561Z,5
2022-08-11T14:37:26.503Z,5
2022-08-11T14:38:28.702Z,4
2022-08-11T14:39:33.104Z,4
2022-08-11T14:40:34.826Z,5
2022-08-11T14:41:36.169Z,5
2022-08-11T14:43:10.022Z,5
2022-08-11T14:44:14.684Z,6
2022-08-11T14:45:17.037Z,6
2022-08-11T14:46:18.067Z,7
2022-08-11T14:47:23.567Z,8
2022-08-11T14:48:26.933Z,8
2022-08-11T14:49:27.944Z,8
2022-08-11T14:50:29.819Z,8
2022-08-11T14:51:31.321Z,7
2022-08-11T14:52:32.619Z,7
2022-08-11T14:53:34.161Z,7
2022-08-11T14:54:35.686Z,6
2022-08-11T14:55:37.279Z,6
2022-08-11T14:56:38.324Z,5
2022-08-11T14:57:54.680Z,5
2022-08-11T14:58:58.559Z,5
2022-08-11T14:59:59.583Z,6
2022-08-11T15:01:01.908Z,7
2022-08-11T15:02:04.537Z,6
2022-08-11T15:03:05.804Z,6
2022-08-11T15:04:34.079Z,5
2022-08-11T15:05:38.788Z,6
2022-08-11T15:06:40.078Z,6
2022-08-11T15:07:41.271Z,7
2022-08-11T15:08:42.810Z,7
2022-08-11T15:10:02.661Z,6
2022-08-11T15:11:15.686Z,6
2022-08-11T15:12:31.376Z,6
2022-08-11T15:13:35.342Z,5
2022-08-11T15:14:36.332Z,6
2022-08-11T15:15:37.326Z,5
2022-08-11T15:16:38.329Z,6
2022-08-11T15:17:43.117Z,6
2022-08-11T15:18:49.768Z,5
2022-08-11T15:19:51.047Z,5
2022-08-11T15:20:53.454Z,5
2022-08-11T15:21:54.933Z,5
2022-08-11T15:22:55.963Z,5
2022-08-11T15:23:56.954Z,5
2022-08-11T15:24:58.479Z,5
2022-08-11T15:26:00.322Z,6
2022-08-11T15:27:01.601Z,6
2022-08-11T15:28:02.606Z,7
2022-08-11T15:29:04.207Z,7
2022-08-11T15:30:05.445Z,6
2022-08-11T15:31:06.500Z,6
2022-08-11T15:32:08.017Z,5
2022-08-11T15:33:09.474Z,5
2022-08-11T15:34:15.862Z,5
2022-08-11T15:35:20.042Z,4
2022-08-11T15:36:22.229Z,4
2022-08-11T15:37:23.240Z,4
2022-08-11T15:38:24.541Z,5
2022-08-11T15:39:25.567Z,4
2022-08-11T15:40:30.224Z,5
2022-08-11T15:41:38.221Z,4
2022-08-11T15:42:42.621Z,4
2022-08-11T15:43:45.220Z,4
2022-08-11T15:45:01.926Z,3
2022-08-11T15:46:09.782Z,3
2022-08-11T15:47:11.309Z,3
2022-08-11T15:48:13.381Z,4
2022-08-11T15:49:21.701Z,4
2022-08-11T15:51:22.105Z,4
2022-08-11T15:52:26.613Z,3
2022-08-11T15:53:27.851Z,3
2022-08-11T15:54:29.572Z,3
2022-08-11T15:55:30.568Z,2